Time;durP1;ratioP1;P1;durP2;ratioP2;P2;SDS_P1;SDS_P2;PMS_P1;PMS_P2;Temp;Humidity;BMP_temperature;BMP_pressure;BME280_temperature;BME280_humidity;BME280_pressure;Samples;Min_cycle;Max_cycle;Signal;HPM_P1;HPM_P2
2023/01/04 00:01:13;;;;;;;23.92;13.72;;;;;;;4.02;77.36;101888.31;1797984;78;28260;-77
2023/01/04 00:03:39;;;;;;;23.25;13.83;;;;;;;3.97;77.50;101879.88;1805523;78;25786;-77
2023/01/04 00:06:08;;;;;;;28.10;15.15;;;;;;;3.95;77.57;101875.64;1821564;78;26366;-78
2023/01/04 00:08:34;;;;;;;38.95;18.62;;;;;;;3.93;77.51;101867.81;1805685;77;25913;-77
2023/01/04 00:11:16;;;;;;;28.95;17.80;;;;;;;3.88;77.58;101869.95;1814581;78;25953;-79
2023/01/04 00:13:44;;;;;;;29.67;16.60;;;;;;;3.88;77.68;101864.64;1780427;79;28273;-78
2023/01/04 00:16:14;;;;;;;27.87;15.38;;;;;;;3.84;77.75;101864.03;1778490;79;26452;-77
2023/01/04 00:18:41;;;;;;;;;;;;;;;3.82;77.72;101862.45;1805139;78;26291;-77
2023/01/04 00:21:15;;;;;;;31.05;15.80;;;;;;;3.77;77.71;101860.14;1806363;78;26512;-76
2023/01/04 00:23:44;;;;;;;25.48;13.58;;;;;;;3.70;77.81;101854.91;1807478;78;25896;-76
2023/01/04 00:26:14;;;;;;;24.07;14.70;;;;;;;3.66;77.90;101872.46;1798035;78;28250;-77
2023/01/04 00:28:42;;;;;;;30.12;15.90;;;;;;;3.62;78.03;101873.64;1797126;78;25883;-77
2023/01/04 00:31:13;;;;;;;26.87;15.53;;;;;;;3.60;78.11;101873.77;1800903;78;26416;-76
2023/01/04 00:33:40;;;;;;;23.62;14.00;;;;;;;3.58;78.19;101877.01;1751923;80;26116;-77
2023/01/04 00:36:10;;;;;;;26.23;15.53;;;;;;;3.54;78.16;101872.03;1819872;78;25931;-76
2023/01/04 00:38:38;;;;;;;27.87;15.18;;;;;;;3.53;78.24;101880.45;1807407;78;28213;-77
2023/01/04 00:41:06;;;;;;;24.12;15.40;;;;;;;3.56;78.29;101879.39;1809267;78;25887;-76
2023/01/04 00:43:32;;;;;;;25.30;14.70;;;;;;;3.51;78.23;101870.92;1802581;77;25640;-77
2023/01/04 00:46:00;;;;;;;26.23;14.45;;;;;;;3.46;78.38;101876.58;1798068;78;25982;-76
2023/01/04 00:48:28;;;;;;;27.77;16.00;;;;;;;3.45;78.43;101879.31;1803574;78;25800;-77
2023/01/04 00:50:55;;;;;;;29.42;15.50;;;;;;;3.42;78.44;101876.91;1800076;78;28179;-77
2023/01/04 00:53:22;;;;;;;28.42;15.83;;;;;;;3.42;78.49;101890.14;1800884;78;25912;-77
2023/01/04 00:55:48;;;;;;;29.57;16.10;;;;;;;3.40;78.36;101894.70;1808336;78;25717;-78
2023/01/04 00:58:14;;;;;;;30.50;16.57;;;;;;;3.35;78.46;101898.15;1761769;79;25762;-78
2023/01/04 01:00:41;;;;;;;27.73;16.17;;;;;;;3.32;78.63;101890.41;1807273;78;25666;-77
2023/01/04 01:03:08;;;;;;;28.83;16.02;;;;;;;3.31;78.58;101888.27;1800953;78;27435;-77
2023/01/04 01:05:35;;;;;;;25.80;15.20;;;;;;;3.31;78.52;101881.64;1747095;80;26439;-77
2023/01/04 01:08:23;;;;;;;28.30;16.17;;;;;;;3.31;78.43;101877.67;1740625;80;25812;-76
2023/01/04 01:10:34;;;;;;;23.60;15.03;;;;;;;3.32;78.38;101882.00;1801330;78;26240;-76
2023/01/04 01:13:00;;;;;;;24.80;14.93;;;;;;;3.33;78.31;101894.77;1800871;78;25811;-77
2023/01/04 01:15:26;;;;;;;30.92;16.52;;;;;;;3.31;78.15;101896.67;1811491;77;27587;-77
2023/01/04 01:17:52;;;;;;;27.93;15.00;;;;;;;3.27;78.16;101899.17;1808510;78;25839;-77
2023/01/04 01:20:19;;;;;;;31.37;16.90;;;;;;;3.24;78.17;101906.85;1801589;77;26378;-78
2023/01/04 01:22:45;;;;;;;25.43;14.10;;;;;;;3.21;78.31;101896.97;1775255;79;25825;-76
2023/01/04 01:25:11;;;;;;;28.07;14.53;;;;;;;3.18;78.35;101892.73;1735000;80;26189;-76
2023/01/04 01:27:37;;;;;;;28.25;15.30;;;;;;;3.16;78.44;101902.58;1800996;78;27451;-77
2023/01/04 01:30:06;;;;;;;30.57;16.37;;;;;;;3.13;78.51;101905.43;1819459;78;26485;-76
2023/01/04 01:32:32;;;;;;;24.20;15.85;;;;;;;3.14;78.61;101896.55;1804321;78;25577;-77
2023/01/04 01:34:58;;;;;;;32.17;17.27;;;;;;;3.17;78.60;101885.72;1805864;78;26354;-78
2023/01/04 01:37:24;;;;;;;26.52;14.68;;;;;;;3.19;78.44;101881.16;1806760;77;25782;-78
2023/01/04 01:39:51;;;;;;;29.12;16.17;;;;;;;3.20;78.29;101889.97;1798427;78;28285;-77
2023/01/04 01:42:21;;;;;;;27.17;15.50;;;;;;;3.17;78.25;101889.70;1808105;78;25864;-76
2023/01/04 01:44:59;;;;;;;25.23;14.67;;;;;;;3.13;78.38;101891.72;1770426;79;25310;-77
2023/01/04 01:47:43;;;;;;;28.92;15.50;;;;;;;3.10;78.45;101890.60;1742927;80;26673;-76
2023/01/04 01:50:28;;;;;;;29.77;16.73;;;;;;;3.10;78.58;101889.78;1763054;79;25853;-77
2023/01/04 01:52:58;;;;;;;28.05;17.42;;;;;;;3.05;78.56;101887.92;1804517;78;27620;-77
2023/01/04 01:55:25;;;;;;;28.95;19.45;;;;;;;3.00;78.69;101888.23;1798345;78;25900;-76
2023/01/04 01:57:53;;;;;;;30.15;16.62;;;;;;;3.00;78.85;101892.68;1771829;79;25773;-77
2023/01/04 02:00:20;;;;;;;33.05;18.35;;;;;;;3.00;78.94;101884.27;1764318;80;26514;-77
2023/01/04 02:02:58;;;;;;;29.95;19.12;;;;;;;3.00;79.04;101884.27;1794624;78;26088;-77
2023/01/04 02:05:27;;;;;;;33.95;21.42;;;;;;;3.00;79.03;101896.64;1800909;78;28358;-77
2023/01/04 02:07:54;;;;;;;40.05;23.40;;;;;;;3.00;79.08;101891.35;1796849;78;25988;-76
2023/01/04 02:10:20;;;;;;;35.63;20.10;;;;;;;2.98;79.10;101893.27;1793491;78;25765;-77
2023/01/04 02:12:50;;;;;;;43.05;23.40;;;;;;;2.97;79.18;101887.11;1797097;78;26200;-77
2023/01/04 02:15:18;;;;;;;33.15;18.77;;;;;;;2.95;79.27;101874.47;1795964;78;26182;-77
2023/01/04 02:17:59;;;;;;;25.57;15.63;;;;;;;2.95;79.29;101878.94;1797081;78;27498;-76
2023/01/04 02:20:55;;;;;;;24.00;14.75;;;;;;;2.94;79.33;101882.52;1792549;78;25825;-77
2023/01/04 02:23:45;;;;;;;27.77;17.05;;;;;;;2.89;79.22;101878.02;1793682;78;26109;-77
2023/01/04 02:26:50;;;;;;;28.65;14.78;;;;;;;2.82;79.17;101870.98;1804477;78;25832;-78
2023/01/04 02:29:23;;;;;;;22.93;15.08;;;;;;;2.82;79.23;101865.69;1792691;78;25769;-77
2023/01/04 02:32:03;;;;;;;28.15;16.93;;;;;;;2.84;79.18;101861.63;1797119;78;28334;-76
2023/01/04 02:34:44;;;;;;;28.02;16.17;;;;;;;2.80;79.22;101866.77;1776629;79;25871;-77
2023/01/04 02:37:52;;;;;;;31.95;16.80;;;;;;;2.77;79.30;101863.85;1803454;78;26045;-78
2023/01/04 02:40:27;;;;;;;30.77;17.37;;;;;;;2.75;79.49;101860.47;1800881;79;25853;-77
2023/01/04 02:46:07;;;;;;;29.60;16.87;;;;;;;2.69;79.48;101862.69;1780815;79;27439;-76
2023/01/04 02:51:33;;;;;;;30.45;17.32;;;;;;;2.64;79.62;101861.68;1797259;78;25730;-76
2023/01/04 02:54:05;;;;;;;26.35;15.90;;;;;;;2.64;79.55;101848.92;1764279;79;26690;-77
2023/01/04 02:56:49;;;;;;;29.15;16.97;;;;;;;2.63;79.51;101850.71;1800469;78;25799;-76
2023/01/04 03:00:13;;;;;;;35.15;17.92;;;;;;;2.63;79.61;101844.09;1806886;78;28248;-77
2023/01/04 03:06:16;;;;;;;28.07;17.15;;;;;;;2.66;79.47;101831.14;1765776;79;25834;-76
2023/01/04 03:09:04;;;;;;;28.17;17.30;;;;;;;2.62;79.10;101823.05;1727301;81;26433;-77
2023/01/04 03:14:41;;;;;;;32.42;18.15;;;;;;;2.60;79.19;101809.09;1802288;78;27460;-77
2023/01/04 03:17:11;;;;;;;27.35;16.87;;;;;;;2.60;79.12;101809.09;1775825;79;25714;-76
2023/01/04 03:19:50;;;;;;;27.32;16.75;;;;;;;2.59;79.05;101814.03;1740620;81;25883;-77
2023/01/04 03:37:09;;;;;;;32.15;18.20;;;;;;;2.47;78.57;101793.70;1805052;78;25808;-75
2023/01/04 03:48:33;;;;;;;33.98;18.12;;;;;;;2.35;78.54;101791.44;1791590;78;25827;-75
2023/01/04 03:51:17;;;;;;;31.77;19.25;;;;;;;2.34;78.63;101793.70;1806264;78;26476;-77
2023/01/04 03:53:57;;;;;;;28.95;19.05;;;;;;;2.31;78.68;101797.39;1741222;81;25767;-79
2023/01/04 03:56:25;;;;;;;32.60;19.90;;;;;;;2.29;78.59;101792.69;1793044;78;27613;-76
2023/01/04 03:58:53;;;;;;;35.95;20.12;;;;;;;2.29;78.60;101782.58;1804855;78;26346;-75
2023/01/04 04:01:23;;;;;;;34.45;19.27;;;;;;;2.25;78.33;101783.28;1805538;78;25752;-76
2023/01/04 04:09:19;;;;;;;32.90;20.80;;;;;;;2.17;79.03;101777.67;1743443;80;45481;-77
2023/01/04 04:11:46;;;;;;;29.90;18.80;;;;;;;2.33;78.96;101775.66;1806187;78;26313;-76
2023/01/04 04:14:13;;;;;;;31.02;17.77;;;;;;;2.33;79.03;101776.16;1800703;78;26384;-76
2023/01/04 04:16:39;;;;;;;30.68;18.82;;;;;;;2.29;78.99;101767.57;1764971;80;26367;-79
2023/01/04 04:19:05;;;;;;;34.92;18.85;;;;;;;2.28;79.09;101772.97;1801611;78;26541;-79
2023/01/04 04:21:32;;;;;;;33.75;19.10;;;;;;;2.27;79.05;101771.27;1800268;78;27435;-78
2023/01/04 04:23:58;;;;;;;34.53;17.87;;;;;;;2.23;78.71;101768.00;1811668;78;25860;-79
2023/01/04 04:26:25;;;;;;;29.77;19.05;;;;;;;2.21;78.67;101769.91;1794569;78;25682;-76
2023/01/04 04:28:51;;;;;;;32.80;18.95;;;;;;;2.20;78.80;101765.55;1764133;79;25768;-76
2023/01/04 04:31:18;;;;;;;33.67;19.45;;;;;;;2.19;78.79;101773.13;1738697;81;26363;-77
2023/01/04 04:33:44;;;;;;;31.95;18.92;;;;;;;2.19;78.84;101771.80;1796254;78;27446;-76
2023/01/04 04:36:10;;;;;;;36.75;20.12;;;;;;;2.17;78.74;101772.39;1802338;78;25421;-76
2023/01/04 04:38:37;;;;;;;35.60;20.32;;;;;;;2.15;78.89;101771.65;1807183;78;25842;-76
2023/01/04 04:43:57;;;;;;;32.17;18.87;;;;;;;2.12;78.67;101773.63;1802242;78;25497;-77
2023/01/04 04:46:23;;;;;;;30.82;19.23;;;;;;;2.08;78.66;101774.80;1803433;77;27449;-77
2023/01/04 04:48:50;;;;;;;33.25;19.15;;;;;;;2.06;78.58;101771.41;1802118;78;26351;-77
2023/01/04 04:51:17;;;;;;;37.67;24.67;;;;;;;2.02;78.80;101776.06;1813255;78;26439;-76
2023/01/04 04:53:43;;;;;;;41.90;24.07;;;;;;;2.00;79.05;101772.69;1761986;79;26531;-75
2023/01/04 04:56:10;;;;;;;32.15;20.00;;;;;;;1.97;79.35;101768.06;1810841;78;25780;-78
2023/01/04 04:58:36;;;;;;;34.63;18.67;;;;;;;1.96;79.44;101757.14;1767574;79;27599;-75
2023/01/04 05:01:04;;;;;;;35.60;20.85;;;;;;;1.95;79.51;101755.43;1793990;78;26468;-76
2023/01/04 05:03:30;;;;;;;35.55;19.32;;;;;;;1.94;79.46;101748.47;1798327;78;25758;-77
2023/01/04 05:05:57;;;;;;;34.43;19.20;;;;;;;1.92;79.41;101744.62;1761368;79;25774;-77
2023/01/04 05:08:23;;;;;;;35.63;20.08;;;;;;;1.92;79.33;101738.48;1732702;81;25718;-77
2023/01/04 05:10:50;;;;;;;39.05;20.92;;;;;;;1.91;79.22;101736.77;1797464;78;27449;-76
2023/01/04 05:13:16;;;;;;;38.10;20.32;;;;;;;1.90;79.15;101734.63;1802463;78;26282;-78
2023/01/04 05:15:46;;;;;;;40.92;21.40;;;;;;;1.89;79.20;101743.49;1801478;78;25872;-77
2023/01/04 05:18:16;;;;;;;38.75;21.50;;;;;;;1.91;79.26;101743.38;1801781;78;26570;-77
2023/01/04 05:20:42;;;;;;;51.68;26.20;;;;;;;1.90;79.23;101739.06;1806800;78;25710;-76
2023/01/04 05:23:12;;;;;;;61.02;27.52;;;;;;;1.89;79.18;101736.03;1801154;78;27449;-76
2023/01/04 05:25:39;;;;;;;54.38;26.12;;;;;;;1.85;79.13;101730.59;1801308;78;26440;-77
2023/01/04 05:28:07;;;;;;;51.65;24.60;;;;;;;1.83;79.26;101726.73;1798677;78;25827;-76
2023/01/04 05:33:25;;;;;;;41.23;21.55;;;;;;;1.81;79.24;101728.64;1802960;78;25806;-76
2023/01/04 05:35:53;;;;;;;44.98;22.93;;;;;;;1.79;79.15;101729.22;1792967;78;28817;-79
2023/01/04 05:38:21;;;;;;;38.98;21.10;;;;;;;1.79;79.18;101716.48;1796183;78;26357;-75
2023/01/04 05:40:48;;;;;;;39.63;23.27;;;;;;;1.78;79.09;101718.73;1796298;78;25734;-77
2023/01/04 05:43:16;;;;;;;37.65;21.85;;;;;;;1.77;79.11;101719.23;1801145;79;25776;-76
2023/01/04 05:45:50;;;;;;;38.85;21.02;;;;;;;1.77;79.12;101715.73;1775532;79;25887;-76
2023/01/04 05:48:17;;;;;;;40.55;22.32;;;;;;;1.75;78.94;101712.36;1795790;78;28350;-76
2023/01/04 05:50:44;;;;;;;36.60;20.77;;;;;;;1.72;78.93;101717.36;1793469;78;25897;-76
2023/01/04 05:53:13;;;;;;;42.38;21.48;;;;;;;1.70;78.76;101710.48;1803133;78;25824;-77
2023/01/04 05:55:39;;;;;;;36.40;20.65;;;;;;;1.68;78.72;101703.14;1769959;79;26353;-77
2023/01/04 05:58:06;;;;;;;34.98;20.15;;;;;;;1.65;78.51;101696.27;1777609;79;26404;-77
2023/01/04 06:00:32;;;;;;;39.73;22.27;;;;;;;1.61;78.56;101686.02;1777405;79;28079;-76
2023/01/04 06:02:58;;;;;;;40.98;22.77;;;;;;;1.58;78.80;101685.77;1803549;79;25743;-77
2023/01/04 06:05:25;;;;;;;42.20;22.48;;;;;;;1.58;78.98;101685.77;1804686;79;25734;-76
2023/01/04 06:07:52;;;;;;;41.50;23.52;;;;;;;1.55;79.08;101685.49;1806908;79;26646;-75
2023/01/04 06:10:19;;;;;;;36.83;22.32;;;;;;;1.55;79.22;101680.68;1807334;79;25731;-76
2023/01/04 06:12:47;;;;;;;42.80;22.67;;;;;;;1.52;79.23;101668.52;1773022;79;28258;-76
2023/01/04 06:15:13;;;;;;;37.80;21.77;;;;;;;1.51;79.30;101660.72;1809047;79;25907;-77
2023/01/04 06:17:40;;;;;;;39.80;22.13;;;;;;;1.52;79.47;101660.60;1771852;79;26460;-76
2023/01/04 06:20:09;;;;;;;42.98;23.60;;;;;;;1.51;79.61;101652.33;1804887;78;26548;-75
2023/01/04 06:22:36;;;;;;;39.23;23.73;;;;;;;1.52;79.65;101646.08;1805043;79;25993;-75
2023/01/04 06:25:03;;;;;;;44.63;23.38;;;;;;;1.52;79.74;101643.91;1808819;79;27433;-76
2023/01/04 06:27:29;;;;;;;38.50;22.27;;;;;;;1.51;79.75;101643.55;1807166;79;25774;-77
2023/01/04 06:29:56;;;;;;;38.20;23.32;;;;;;;1.51;79.77;101640.91;1805136;79;25856;-76
2023/01/04 06:32:22;;;;;;;40.75;22.77;;;;;;;1.50;79.82;101633.46;1806373;79;26563;-76
2023/01/04 06:34:48;;;;;;;50.70;23.50;;;;;;;1.52;79.85;101637.31;1808173;79;25500;-75
2023/01/04 06:37:15;;;;;;;40.43;23.65;;;;;;;1.50;79.84;101635.25;1803616;78;27434;-76
2023/01/04 06:39:41;;;;;;;39.03;22.85;;;;;;;1.51;79.85;101646.19;1776250;79;25847;-76
2023/01/04 06:42:43;;;;;;;46.50;23.62;;;;;;;1.50;79.72;101645.80;1798368;78;25835;-76
2023/01/04 06:44:35;;;;;;;37.50;23.07;;;;;;;1.50;79.67;101647.13;1802217;78;25813;-78
2023/01/04 06:47:02;;;;;;;42.25;24.30;;;;;;;1.48;79.61;101645.92;1795851;78;26318;-76
2023/01/04 06:49:28;;;;;;;44.08;24.27;;;;;;;1.47;79.56;101652.63;1799530;79;27432;-75
2023/01/04 06:51:54;;;;;;;43.48;24.20;;;;;;;1.44;79.54;101660.28;1802526;78;25284;-76
2023/01/04 06:54:20;;;;;;;45.75;24.37;;;;;;;1.44;79.60;101656.78;1802094;78;26422;-76
2023/01/04 06:56:47;;;;;;;40.45;25.32;;;;;;;1.43;79.70;101659.89;1800006;78;26576;-76
2023/01/04 06:59:13;;;;;;;43.30;25.95;;;;;;;1.44;79.70;101666.88;1810233;78;25720;-77
2023/01/04 07:01:39;;;;;;;45.23;25.15;;;;;;;1.43;79.67;101668.31;1811408;77;27616;-75
2023/01/04 07:04:05;;;;;;;51.50;27.95;;;;;;;1.43;79.72;101669.63;1806681;78;25912;-77
2023/01/04 07:06:32;;;;;;;49.83;27.95;;;;;;;1.42;79.73;101669.25;1814975;77;25919;-76
2023/01/04 07:08:58;;;;;;;52.43;27.22;;;;;;;1.42;79.77;101663.97;1806263;78;26389;-76
2023/01/04 07:11:24;;;;;;;56.70;30.88;;;;;;;1.41;79.87;101663.61;1748065;81;25897;-77
2023/01/04 07:13:51;;;;;;;52.25;29.72;;;;;;;1.40;79.96;101660.12;1802566;78;27448;-77
2023/01/04 07:16:18;;;;;;;54.60;29.27;;;;;;;1.41;79.99;101662.29;1802960;78;26396;-77
2023/01/04 07:18:44;;;;;;;55.10;29.55;;;;;;;1.39;79.95;101651.81;1797180;78;25878;-76
2023/01/04 07:21:11;;;;;;;52.15;29.10;;;;;;;1.39;79.96;101640.43;1804013;78;25768;-76
2023/01/04 07:23:37;;;;;;;59.40;31.95;;;;;;;1.37;80.00;101637.88;1811675;78;25794;-76
2023/01/04 07:26:04;;;;;;;57.40;31.70;;;;;;;1.38;80.10;101640.89;1774867;79;27444;-77
2023/01/04 07:31:15;;;;;;;55.50;31.77;;;;;;;1.38;80.20;101628.16;1809863;78;25753;-75
2023/01/04 07:33:41;;;;;;;54.95;29.52;;;;;;;1.36;80.48;101620.36;1819184;78;26438;-78
2023/01/04 07:36:08;;;;;;;51.23;28.23;;;;;;;1.37;80.66;101622.03;1808397;78;25861;-76
2023/01/04 07:38:35;;;;;;;49.83;27.35;;;;;;;1.39;80.97;101623.27;1812625;77;28681;-77
2023/01/04 07:41:01;;;;;;;47.67;27.32;;;;;;;1.42;81.12;101621.73;1802620;78;25781;-76
2023/01/04 07:43:28;;;;;;;51.40;28.15;;;;;;;1.42;81.35;101617.30;1807987;78;25760;-76
2023/01/04 07:45:54;;;;;;;51.55;29.98;;;;;;;1.45;81.58;101617.58;1802245;78;25856;-76
2023/01/04 07:48:20;;;;;;;57.67;31.60;;;;;;;1.47;81.71;101614.35;1813202;78;25929;-76
2023/01/04 07:50:46;;;;;;;54.00;32.15;;;;;;;1.46;81.81;101617.92;1799653;78;27456;-77
2023/01/04 07:53:13;;;;;;;50.80;29.37;;;;;;;1.47;82.67;101616.99;1775626;78;25741;-76
2023/01/04 07:55:39;;;;;;;53.17;28.92;;;;;;;1.52;82.71;101614.86;1803628;78;25766;-76
2023/01/04 07:58:05;;;;;;;64.70;38.30;;;;;;;1.55;82.68;101601.00;1771099;79;25905;-76
2023/01/04 08:00:32;;;;;;;58.85;34.67;;;;;;;1.58;82.77;101598.63;1806303;78;25859;-77
2023/01/04 08:02:58;;;;;;;52.30;30.45;;;;;;;1.60;82.91;101587.48;1808851;77;27509;-76
2023/01/04 08:05:24;;;;;;;51.88;30.80;;;;;;;1.62;83.06;101584.27;1799606;78;25715;-77
2023/01/04 08:07:51;;;;;;;56.33;33.35;;;;;;;1.63;83.28;101587.72;1790082;78;26182;-77
2023/01/04 08:10:17;;;;;;;55.60;32.50;;;;;;;1.61;83.46;101603.69;1809901;78;25916;-78
2023/01/04 08:12:44;;;;;;;52.40;30.77;;;;;;;1.65;83.80;101610.94;1805753;78;26203;-75
2023/01/04 08:15:10;;;;;;;53.50;30.97;;;;;;;1.69;83.98;101613.23;1770329;80;27434;-75
2023/01/04 08:17:36;;;;;;;52.20;29.20;;;;;;;1.72;84.16;101588.42;1737261;81;26316;-76
2023/01/04 08:20:04;;;;;;;53.55;29.60;;;;;;;1.75;84.27;101578.51;1774650;80;25743;-76
2023/01/04 08:22:30;;;;;;;59.95;30.77;;;;;;;1.77;84.42;101575.28;1728914;80;25813;-76
2023/01/04 08:24:56;;;;;;;55.95;30.57;;;;;;;1.81;84.63;101576.75;1777669;79;25712;-76
2023/01/04 08:27:23;;;;;;;51.53;29.12;;;;;;;1.85;84.74;101574.73;1741433;80;27448;-76
2023/01/04 08:29:49;;;;;;;55.20;31.25;;;;;;;1.87;85.00;101578.11;1801641;78;25878;-76
2023/01/04 08:32:15;;;;;;;55.28;30.80;;;;;;;1.89;85.23;101573.09;1803295;78;25841;-75
2023/01/04 08:34:42;;;;;;;53.02;30.02;;;;;;;1.94;85.38;101575.41;1798032;78;25761;-75
2023/01/04 08:37:08;;;;;;;54.23;29.02;;;;;;;1.98;85.54;101563.20;1809088;78;25738;-76
2023/01/04 08:39:35;;;;;;;52.30;29.35;;;;;;;2.04;85.70;101556.63;1805254;79;27445;-76
2023/01/04 08:42:03;;;;;;;50.78;28.92;;;;;;;2.08;85.85;101562.91;1804262;79;26105;-76
2023/01/04 08:44:29;;;;;;;51.55;30.82;;;;;;;2.12;86.05;101563.53;1773405;80;25777;-76
2023/01/04 08:46:55;;;;;;;55.23;30.02;;;;;;;2.17;86.19;101556.13;1806852;79;26766;-76
2023/01/04 08:49:22;;;;;;;55.70;29.05;;;;;;;2.21;86.46;101558.91;1811812;78;25832;-77
2023/01/04 08:51:49;;;;;;;50.25;29.45;;;;;;;2.26;86.67;101561.61;1766991;79;27907;-78
2023/01/04 08:54:16;;;;;;;51.40;29.23;;;;;;;2.30;86.90;101545.89;1824379;78;25319;-75
2023/01/04 08:56:43;;;;;;;55.23;30.95;;;;;;;2.38;87.07;101541.83;1817981;77;26459;-76
2023/01/04 08:59:11;;;;;;;53.92;29.95;;;;;;;2.43;87.15;101529.98;1801305;78;25998;-77
2023/01/04 09:01:38;;;;;;;52.05;29.45;;;;;;;2.50;87.28;101526.41;1810793;77;25906;-75
2023/01/04 09:04:04;;;;;;;55.03;29.37;;;;;;;2.55;87.26;101518.96;1804195;78;27632;-75
2023/01/04 09:06:31;;;;;;;53.92;29.67;;;;;;;2.60;87.25;101519.01;1810044;78;25758;-76
2023/01/04 09:08:57;;;;;;;55.45;32.63;;;;;;;2.65;87.35;101508.09;1818425;77;25826;-76
2023/01/04 09:11:25;;;;;;;50.45;30.10;;;;;;;2.70;87.50;101518.68;1806563;78;26034;-76
2023/01/04 09:13:57;;;;;;;53.65;30.92;;;;;;;2.78;87.70;101516.30;1779398;79;25553;-77
2023/01/04 09:16:23;;;;;;;57.60;31.52;;;;;;;2.85;87.82;101516.21;1817117;78;26864;-76
2023/01/04 09:18:50;;;;;;;126.75;56.95;;;;;;;2.92;87.90;101502.90;1812163;78;25784;-77
2023/01/04 09:21:20;;;;;;;187.03;87.95;;;;;;;2.97;87.87;101495.94;1795319;78;25857;-76
2023/01/04 09:23:47;;;;;;;149.82;73.67;;;;;;;3.00;87.82;101489.92;1805184;78;26631;-76
2023/01/04 09:26:17;;;;;;;82.78;45.67;;;;;;;3.05;87.91;101485.13;1816095;77;25872;-76
2023/01/04 09:28:44;;;;;;;57.45;35.58;;;;;;;3.07;87.95;101477.91;1815655;77;27426;-76
2023/01/04 09:31:17;;;;;;;51.83;30.50;;;;;;;3.11;87.86;101478.04;1804440;78;25806;-76
2023/01/04 09:33:44;;;;;;;56.18;31.37;;;;;;;3.12;87.79;101470.95;1800601;78;25826;-75
2023/01/04 09:36:15;;;;;;;50.43;29.25;;;;;;;3.17;87.95;101463.95;1809874;78;25784;-75
2023/01/04 09:38:42;;;;;;;57.78;32.83;;;;;;;3.21;88.12;101446.39;1810400;77;26435;-75
2023/01/04 09:41:30;;;;;;;55.33;33.48;;;;;;;3.26;88.32;101438.94;1819230;78;27457;-75
2023/01/04 09:44:03;;;;;;;52.58;32.05;;;;;;;3.31;88.41;101434.14;1805777;78;25807;-76
2023/01/04 09:46:52;;;;;;;55.88;31.12;;;;;;;3.38;88.56;101437.16;1802840;78;25741;-76
2023/01/04 09:49:27;;;;;;;51.95;27.75;;;;;;;3.43;88.63;101431.00;1799383;78;26497;-76
2023/01/04 09:52:12;;;;;;;52.13;28.92;;;;;;;3.50;88.72;101434.85;1794672;78;25547;-76
2023/01/04 09:54:49;;;;;;;51.08;28.42;;;;;;;3.54;88.74;101423.90;1806890;78;27621;-75
2023/01/04 09:57:23;;;;;;;48.83;26.75;;;;;;;3.60;88.89;101420.75;1774991;79;25861;-75
2023/01/04 09:59:58;;;;;;;49.55;29.57;;;;;;;3.64;88.79;101402.33;1805779;78;25885;-76
2023/01/04 10:02:45;;;;;;;49.93;28.85;;;;;;;3.69;88.91;101401.96;1804408;78;26525;-76
2023/01/04 10:05:20;;;;;;;49.53;27.90;;;;;;;3.74;88.95;101394.49;1770697;79;26489;-76
2023/01/04 10:07:48;;;;;;;46.83;26.93;;;;;;;3.79;89.00;101387.84;1807875;78;27433;-76
2023/01/04 10:10:19;;;;;;;44.15;27.32;;;;;;;3.83;89.02;101380.00;1814370;78;25227;-76
2023/01/04 10:13:13;;;;;;;43.92;25.77;;;;;;;3.87;88.94;101374.80;1807081;77;25756;-76
2023/01/04 10:15:54;;;;;;;42.83;26.00;;;;;;;3.92;88.81;101363.83;1769633;79;26345;-75
2023/01/04 10:18:41;;;;;;;43.78;24.25;;;;;;;3.97;88.74;101356.83;1794618;78;25757;-76
2023/01/04 10:21:25;;;;;;;41.63;25.23;;;;;;;3.99;88.74;101335.87;1801700;78;27428;-78
2023/01/04 10:24:12;;;;;;;37.95;22.37;;;;;;;4.02;88.67;101311.73;1804089;78;25777;-76
2023/01/04 10:26:44;;;;;;;46.95;25.55;;;;;;;4.07;88.72;101301.60;1810511;77;26411;-75
2023/01/04 10:29:50;;;;;;;46.08;25.48;;;;;;;4.12;88.74;101295.92;1803354;78;25895;-76
2023/01/04 10:32:36;;;;;;;42.35;25.32;;;;;;;4.15;88.79;101281.09;1811640;78;26159;-76
2023/01/04 10:35:18;;;;;;;46.92;25.23;;;;;;;4.18;88.72;101272.86;1809649;78;27435;-76
2023/01/04 10:37:53;;;;;;;43.17;24.72;;;;;;;4.22;88.76;101256.56;1809382;78;25769;-76
2023/01/04 10:40:20;;;;;;;40.48;24.27;;;;;;;4.26;88.68;101246.53;1783373;79;26376;-76
2023/01/04 10:43:23;;;;;;;39.90;22.13;;;;;;;4.31;88.64;101229.75;1804977;78;26504;-76
2023/01/04 10:46:01;;;;;;;39.20;23.55;;;;;;;4.33;88.67;101231.31;1802765;78;25802;-76
2023/01/04 10:48:38;;;;;;;40.10;23.62;;;;;;;4.36;88.65;101212.97;1772062;79;27421;-77
2023/01/04 10:51:07;;;;;;;38.83;22.75;;;;;;;4.41;88.70;101209.41;1762737;80;25490;-77
2023/01/04 10:53:57;;;;;;;38.70;23.22;;;;;;;4.45;88.71;101199.73;1760607;80;26388;-76
2023/01/04 10:56:40;;;;;;;45.40;23.85;;;;;;;4.49;88.71;101202.98;1751444;80;25850;-76
2023/01/04 10:59:21;;;;;;;39.95;23.00;;;;;;;4.53;88.65;101199.91;1774765;79;25885;-77
2023/01/04 11:02:19;;;;;;;39.55;22.32;;;;;;;4.56;88.64;101199.66;1812051;78;28441;-76
2023/01/04 11:04:57;;;;;;;43.73;24.40;;;;;;;4.60;88.64;101205.52;1808886;78;25740;-75
2023/01/04 11:07:35;;;;;;;41.60;23.15;;;;;;;4.65;88.70;101196.69;1799649;78;26380;-76
2023/01/04 11:10:16;;;;;;;33.75;21.33;;;;;;;4.69;88.61;101187.48;1787759;78;26579;-77
2023/01/04 11:12:42;;;;;;;;;;;;;;;4.74;88.61;101179.11;1819019;78;25764;-75
2023/01/04 11:15:09;;;;;;;38.20;21.75;;;;;;;4.78;88.66;101173.41;1798381;78;27517;-77
2023/01/04 11:17:37;;;;;;;39.13;22.17;;;;;;;4.81;88.70;101171.82;1818834;78;25811;-75
2023/01/04 11:20:04;;;;;;;40.67;21.82;;;;;;;4.85;88.71;101163.09;1814223;78;25886;-76
2023/01/04 11:22:38;;;;;;;41.48;21.42;;;;;;;4.90;88.65;101136.98;1812184;77;26209;-76
2023/01/04 11:25:11;;;;;;;36.45;22.17;;;;;;;4.92;88.53;101127.88;1791759;78;26705;-75
2023/01/04 11:27:53;;;;;;;40.35;22.77;;;;;;;4.96;88.52;101108.55;1798891;77;27686;-76
2023/01/04 11:30:23;;;;;;;37.08;20.92;;;;;;;4.99;88.36;101101.63;1801734;78;25295;-76
2023/01/04 11:33:00;;;;;;;38.48;22.30;;;;;;;5.01;88.15;101095.69;1792549;78;25762;-76
2023/01/04 11:35:43;;;;;;;40.15;22.60;;;;;;;5.03;88.08;101088.42;1769302;79;27042;-77
2023/01/04 11:38:15;;;;;;;38.75;22.27;;;;;;;5.05;88.01;101085.13;1800079;78;25764;-78
2023/01/04 11:40:42;;;;;;;34.78;20.85;;;;;;;5.07;87.91;101079.22;1809045;77;27923;-77
2023/01/04 11:43:18;;;;;;;38.60;23.77;;;;;;;5.09;87.83;101063.47;1751589;80;25727;-77
2023/01/04 11:46:00;;;;;;;34.30;21.73;;;;;;;5.11;87.69;101054.88;1809992;78;25740;-76
2023/01/04 11:48:40;;;;;;;35.50;20.02;;;;;;;5.14;87.58;101047.13;1759690;78;26228;-76
2023/01/04 11:51:35;;;;;;;32.88;20.70;;;;;;;5.15;87.47;101038.20;1776707;79;26612;-76
2023/01/04 11:54:09;;;;;;;46.20;21.70;;;;;;;5.16;87.39;101027.42;1739352;81;27453;-76
2023/01/04 11:56:36;;;;;;;36.25;21.30;;;;;;;5.20;87.37;101017.34;1738588;81;25760;-76
2023/01/04 11:59:14;;;;;;;39.38;22.45;;;;;;;5.22;87.26;101012.24;1809249;78;25773;-76
2023/01/04 12:01:44;;;;;;;35.78;21.05;;;;;;;5.25;87.22;101007.14;1809966;78;25781;-75
2023/01/04 12:04:19;;;;;;;34.27;20.30;;;;;;;5.27;87.10;101007.35;1807381;78;26103;-76
2023/01/04 12:07:02;;;;;;;32.95;19.75;;;;;;;5.32;87.09;100997.63;1819928;78;28025;-77
2023/01/04 12:09:30;;;;;;;33.23;20.37;;;;;;;5.33;86.97;100989.52;1801347;78;25725;-76
2023/01/04 12:11:59;;;;;;;34.98;19.73;;;;;;;5.38;86.90;100983.77;1805535;78;25728;-76
2023/01/04 12:14:33;;;;;;;30.75;19.35;;;;;;;5.41;86.92;100981.65;1819989;78;26501;-77
2023/01/04 12:17:10;;;;;;;30.20;18.27;;;;;;;5.44;86.79;100977.88;1752475;80;25927;-76
2023/01/04 12:19:42;;;;;;;31.65;19.55;;;;;;;5.46;86.70;100975.42;1807193;78;28302;-76
2023/01/04 12:22:20;;;;;;;35.15;19.65;;;;;;;5.50;86.67;100969.31;1819341;78;25947;-76
2023/01/04 12:24:47;;;;;;;31.80;18.10;;;;;;;5.53;86.56;100969.53;1808519;77;26381;-75